Xin Dan Dong — BPBY — position and weather

sailwx.info

Track history (hours):
 
Tides and Currents Weather Stations Pressure Air Temp Water Temp Dewpoint Dewpoint Depression Visibility Wind Speed Wind Dir Waves Ship Positions

Xin Dan Dong

Last reported at 2015-Jan-28 16:33 UTC. Time now 2015-Jan-29 08:15 UTC.
Position N 38°25' E 121°21'.

Length 263 m; draft 9.1 m.

Type: Cargo ship. MMSI: 413153000.

Date/timePositionNaut miles runAvg speedWind from/ knotsBaromVisibWave heightAir tempDewpointWater temp
2015-Jan-28 16:33N 38°25' E 121°21'1313.2
2015-Jan-28 15:33N 38°18' E 121°36'1613.5
2015-Jan-28 14:21N 38°10' E 121°54'  
2015-Jan-25 17:20N 25°09' E 119°55'3713.3
2015-Jan-25 14:32N 24°44' E 119°25'1313.4
2015-Jan-25 13:33N 24°34' E 119°15'1413.3
2015-Jan-25 12:30N 24°25' E 119°03'2612.7
2015-Jan-25 10:27N 24°07' E 118°42'1111.7
2015-Jan-25 09:33N 24°00' E 118°34'1212.3
2015-Jan-25 08:32N 23°52' E 118°23'1212.2
2015-Jan-25 07:33N 23°44' E 118°14'1312.5
2015-Jan-25 06:29N 23°35' E 118°03'1313.5
2015-Jan-25 05:32N 23°26' E 117°53'7712.3
2015-Jan-24 23:15N 22°38' E 116°47'1111.4
2015-Jan-24 22:17N 22°34' E 116°36'12411.6
2015-Jan-24 11:31N 21°60' E 114°27'2410.9
2015-Jan-24 09:21N 21°58' E 114°01'911.9
2015-Jan-24 08:33N 22°02' E 113°52'1211.6
2015-Jan-24 07:33N 22°13' E 113°48'1414.4
2015-Jan-24 06:33N 22°27' E 113°45'1313.2
2015-Jan-24 05:32N 22°39' E 113°41'0 0.0
2015-Jan-23 09:14N 22°39' E 113°41'0 0.0
2015-Jan-23 08:32N 22°39' E 113°41'1 0.6
2015-Jan-23 07:32N 22°39' E 113°41'1111.3
2015-Jan-23 06:33N 22°28' E 113°45'1312.7
2015-Jan-23 05:33N 22°16' E 113°48'9 9.4
2015-Jan-23 04:33N 22°07' E 113°51'9 7.5
2015-Jan-23 03:20N 21°60' E 113°57'23 6.1
2015-Jan-22 23:33N 21°59' E 114°22'156 7.8
2015-Jan-22 03:30N 22°46' E 117°03'1212.3
2015-Jan-22 02:29N 22°53' E 117°14'1112.0
2015-Jan-22 01:33N 23°00' E 117°23'3312.2
2015-Jan-21 22:49N 23°23' E 117°49'613.0
2015-Jan-21 22:21N 23°28' E 117°54'1213.2
2015-Jan-21 21:28N 23°35' E 118°04'1313.7
2015-Jan-21 20:29N 23°45' E 118°14'1313.7
2015-Jan-21 19:34N 23°53' E 118°25'1413.8
2015-Jan-21 18:33N 24°02' E 118°36'1414.1
2015-Jan-21 17:33N 24°12' E 118°48'1414.1
2015-Jan-21 16:33N 24°22' E 118°58'1413.5
2015-Jan-21 15:33N 24°31' E 119°09'1312.9
2015-Jan-21 14:33N 24°40' E 119°19'2712.8
2015-Jan-21 12:27N 24°58' E 119°41'1313.0
2015-Jan-21 11:27N 25°07' E 119°52'1512.5
2015-Jan-21 10:14N 25°16' E 120°05'29412.4
2015-Jan-20 10:32N 29°27' E 122°58'49412.7
2015-Jan-18 19:33N 37°42' E 122°41'1312.7
2015-Jan-18 18:33N 37°44' E 122°25'1413.2
2015-Jan-18 17:32N 37°46' E 122°08'  
Track history (hours):
 
Tides and Currents Weather Stations Pressure Air Temp Water Temp Dewpoint Dewpoint Depression Visibility Wind Speed Wind Dir Waves Ship Positions

Xin Dan Dong

Last reported at 2015-Jan-28 16:33 UTC. Time now 2015-Jan-29 08:15 UTC.
Position N 38°25' E 121°21'.

Length 263 m; draft 9.1 m.

Type: Cargo ship. MMSI: 413153000.

Date/timePositionNaut miles runAvg speedWind from/ knotsBaromVisibWave heightAir tempDewpointWater temp
2015-Jan-28 16:33N 38°25' E 121°21'1313.2
2015-Jan-28 15:33N 38°18' E 121°36'1613.5
2015-Jan-28 14:21N 38°10' E 121°54'  
2015-Jan-25 17:20N 25°09' E 119°55'3713.3
2015-Jan-25 14:32N 24°44' E 119°25'1313.4
2015-Jan-25 13:33N 24°34' E 119°15'1413.3
2015-Jan-25 12:30N 24°25' E 119°03'2612.7
2015-Jan-25 10:27N 24°07' E 118°42'1111.7
2015-Jan-25 09:33N 24°00' E 118°34'1212.3
2015-Jan-25 08:32N 23°52' E 118°23'1212.2
2015-Jan-25 07:33N 23°44' E 118°14'1312.5
2015-Jan-25 06:29N 23°35' E 118°03'1313.5
2015-Jan-25 05:32N 23°26' E 117°53'7712.3
2015-Jan-24 23:15N 22°38' E 116°47'1111.4
2015-Jan-24 22:17N 22°34' E 116°36'12411.6
2015-Jan-24 11:31N 21°60' E 114°27'2410.9
2015-Jan-24 09:21N 21°58' E 114°01'911.9
2015-Jan-24 08:33N 22°02' E 113°52'1211.6
2015-Jan-24 07:33N 22°13' E 113°48'1414.4
2015-Jan-24 06:33N 22°27' E 113°45'1313.2
2015-Jan-24 05:32N 22°39' E 113°41'0 0.0
2015-Jan-23 09:14N 22°39' E 113°41'0 0.0
2015-Jan-23 08:32N 22°39' E 113°41'1 0.6
2015-Jan-23 07:32N 22°39' E 113°41'1111.3
2015-Jan-23 06:33N 22°28' E 113°45'1312.7
2015-Jan-23 05:33N 22°16' E 113°48'9 9.4
2015-Jan-23 04:33N 22°07' E 113°51'9 7.5
2015-Jan-23 03:20N 21°60' E 113°57'23 6.1
2015-Jan-22 23:33N 21°59' E 114°22'156 7.8
2015-Jan-22 03:30N 22°46' E 117°03'1212.3
2015-Jan-22 02:29N 22°53' E 117°14'1112.0
2015-Jan-22 01:33N 23°00' E 117°23'3312.2
2015-Jan-21 22:49N 23°23' E 117°49'613.0
2015-Jan-21 22:21N 23°28' E 117°54'1213.2
2015-Jan-21 21:28N 23°35' E 118°04'1313.7
2015-Jan-21 20:29N 23°45' E 118°14'1313.7
2015-Jan-21 19:34N 23°53' E 118°25'1413.8
2015-Jan-21 18:33N 24°02' E 118°36'1414.1
2015-Jan-21 17:33N 24°12' E 118°48'1414.1
2015-Jan-21 16:33N 24°22' E 118°58'1413.5
2015-Jan-21 15:33N 24°31' E 119°09'1312.9
2015-Jan-21 14:33N 24°40' E 119°19'2712.8
2015-Jan-21 12:27N 24°58' E 119°41'1313.0
2015-Jan-21 11:27N 25°07' E 119°52'1512.5
2015-Jan-21 10:14N 25°16' E 120°05'29412.4
2015-Jan-20 10:32N 29°27' E 122°58'49412.7
2015-Jan-18 19:33N 37°42' E 122°41'1312.7
2015-Jan-18 18:33N 37°44' E 122°25'1413.2
2015-Jan-18 17:32N 37°46' E 122°08'  

Dump ship's entire track history